Time;durP1;ratioP1;P1;durP2;ratioP2;P2;SDS_P1;SDS_P2;PMS_P1;PMS_P2;Temp;Humidity;BMP_temperature;BMP_pressure;BME280_temperature;BME280_humidity;BME280_pressure;Samples;Min_cycle;Max_cycle;Signal;HPM_P1;HPM_P2
2022/04/29 00:01:00;;;;;;;13.77;3.75;;;19.60;75.50;;;;;;5008734;28;20037;-72
2022/04/29 00:03:26;;;;;;;17.83;4.80;;;19.50;75.20;;;;;;5006556;28;20026;-73
2022/04/29 00:05:55;;;;;;;18.52;4.07;;;19.50;74.90;;;;;;5007635;28;20018;-74
2022/04/29 00:08:21;;;;;;;14.45;3.65;;;19.50;74.50;;;;;;5005838;28;20365;-71
2022/04/29 00:10:48;;;;;;;13.90;3.85;;;19.50;74.30;;;;;;5007885;28;20026;-71
2022/04/29 00:13:17;;;;;;;16.35;4.03;;;19.50;74.20;;;;;;5006703;28;20053;-68
2022/04/29 00:15:44;;;;;;;11.00;3.55;;;19.50;74.00;;;;;;5005357;28;20091;-70
2022/04/29 00:18:11;;;;;;;10.30;3.28;;;19.50;73.90;;;;;;5006335;28;20040;-71
2022/04/29 00:20:38;;;;;;;18.55;3.17;;;19.40;73.80;;;;;;5006765;28;20073;-73
2022/04/29 00:23:04;;;;;;;17.15;3.67;;;19.40;73.80;;;;;;5006529;28;20022;-65
2022/04/29 00:25:31;;;;;;;11.38;3.92;;;19.40;73.90;;;;;;5006296;28;20081;-74
2022/04/29 00:27:58;;;;;;;17.48;3.47;;;19.40;73.70;;;;;;5006734;28;20022;-70
2022/04/29 00:30:25;;;;;;;14.55;3.58;;;19.40;73.70;;;;;;5007059;28;20026;-72
2022/04/29 00:32:51;;;;;;;17.85;3.47;;;19.30;74.20;;;;;;5004801;28;20044;-71
2022/04/29 00:35:18;;;;;;;15.65;3.40;;;19.30;73.70;;;;;;5006509;28;20034;-68
2022/04/29 00:37:47;;;;;;;15.35;3.80;;;19.30;73.60;;;;;;5005656;28;20068;-71
2022/04/29 00:40:22;;;;;;;15.35;3.33;;;19.30;73.90;;;;;;5007689;28;21367;-70
2022/04/29 00:42:49;;;;;;;17.85;3.58;;;19.30;73.70;;;;;;5004363;28;20076;-71
2022/04/29 00:45:18;;;;;;;15.82;4.20;;;19.20;73.50;;;;;;5007453;28;20496;-68
2022/04/29 00:47:45;;;;;;;24.45;4.63;;;19.20;73.50;;;;;;5005250;28;20456;-73
2022/04/29 00:50:14;;;;;;;14.15;5.10;;;19.20;73.30;;;;;;5006938;28;20060;-73
2022/04/29 00:52:46;;;;;;;11.98;3.30;;;19.20;73.30;;;;;;5005333;28;20022;-70
2022/04/29 00:55:14;;;;;;;13.32;3.65;;;19.20;73.30;;;;;;5004603;28;20076;-65
2022/04/29 00:58:09;;;;;;;12.95;5.03;;;19.10;73.20;;;;;;5004236;28;20014;-73
2022/04/29 01:00:38;;;;;;;10.18;3.83;;;19.10;73.10;;;;;;5003917;28;20381;-73
2022/04/29 01:03:05;;;;;;;14.05;3.63;;;19.10;73.00;;;;;;5006406;28;20021;-72
2022/04/29 01:05:33;;;;;;;13.48;3.13;;;19.00;73.00;;;;;;5006594;28;20127;-73
2022/04/29 01:07:59;;;;;;;14.80;4.57;;;19.00;73.10;;;;;;5019792;28;20377;-71
2022/04/29 01:10:26;;;;;;;10.35;4.97;;;19.00;73.10;;;;;;5006197;28;20022;-66
2022/04/29 01:13:00;;;;;;;18.17;4.85;;;19.00;73.00;;;;;;5006128;28;20042;-74
2022/04/29 01:15:28;;;;;;;12.73;3.72;;;19.00;73.00;;;;;;5005749;28;20096;-67
2022/04/29 01:17:58;;;;;;;10.27;4.93;;;19.00;73.00;;;;;;5004204;28;20024;-74
2022/04/29 01:20:27;;;;;;;10.55;4.88;;;18.90;73.00;;;;;;5006703;28;20042;-72
2022/04/29 01:22:54;;;;;;;16.55;4.97;;;18.90;73.10;;;;;;5006587;28;20021;-68
2022/04/29 01:25:20;;;;;;;10.00;4.20;;;18.90;73.20;;;;;;5005753;28;20022;-73
2022/04/29 01:27:46;;;;;;;11.35;3.85;;;18.90;73.40;;;;;;5005252;28;20018;-73
2022/04/29 01:30:17;;;;;;;15.50;4.78;;;18.90;73.80;;;;;;5005366;28;20026;-71
2022/04/29 01:32:45;;;;;;;11.20;3.30;;;18.90;74.10;;;;;;5007113;28;20018;-73
2022/04/29 01:35:13;;;;;;;11.63;3.63;;;18.90;74.20;;;;;;5004689;28;20038;-70
2022/04/29 01:37:41;;;;;;;11.57;4.10;;;18.90;74.30;;;;;;5006027;28;20045;-72
2022/04/29 01:40:09;;;;;;;13.20;4.18;;;18.90;74.90;;;;;;5006361;28;20102;-73
2022/04/29 01:42:37;;;;;;;17.67;3.88;;;19.00;74.30;;;;;;5006476;28;20045;-70
2022/04/29 01:45:04;;;;;;;11.45;3.53;;;19.00;74.70;;;;;;5005856;28;20358;-74
2022/04/29 01:47:31;;;;;;;16.05;3.85;;;19.00;75.10;;;;;;5004441;28;20373;-73
2022/04/29 01:49:57;;;;;;;11.13;3.92;;;19.00;75.30;;;;;;5006568;28;20033;-74
2022/04/29 01:52:23;;;;;;;10.45;3.47;;;19.00;75.50;;;;;;5003817;28;20045;-69
2022/04/29 01:54:50;;;;;;;11.25;3.10;;;19.00;75.50;;;;;;5005740;28;20034;-67
2022/04/29 01:57:17;;;;;;;14.18;4.18;;;19.00;75.60;;;;;;5003180;28;20053;-66
2022/04/29 01:59:44;;;;;;;54.53;9.73;;;19.00;75.70;;;;;;5005866;28;20022;-71
2022/04/29 02:02:11;;;;;;;29.30;8.60;;;19.00;76.40;;;;;;5005071;28;20014;-71
2022/04/29 02:04:37;;;;;;;14.75;5.10;;;19.10;77.10;;;;;;5006197;28;20028;-71
2022/04/29 02:07:05;;;;;;;21.90;5.90;;;19.10;76.70;;;;;;5007496;28;20076;-72
2022/04/29 02:09:32;;;;;;;11.88;3.92;;;19.00;76.30;;;;;;5007725;28;20026;-73
2022/04/29 02:12:05;;;;;;;11.48;3.92;;;19.10;76.00;;;;;;5009526;28;20022;-71
2022/04/29 02:14:33;;;;;;;8.90;3.05;;;19.10;75.80;;;;;;5006882;28;20088;-71
2022/04/29 02:17:02;;;;;;;8.35;3.08;;;19.10;75.70;;;;;;5005257;28;20030;-73
2022/04/29 02:19:28;;;;;;;12.50;3.35;;;19.00;75.50;;;;;;5008636;28;20036;-73
2022/04/29 02:21:59;;;;;;;16.88;4.10;;;19.00;76.10;;;;;;5007403;28;20124;-72
2022/04/29 02:24:26;;;;;;;25.15;4.10;;;19.00;76.80;;;;;;5007388;28;20022;-66
2022/04/29 02:26:54;;;;;;;17.55;4.50;;;19.00;77.50;;;;;;5005197;28;20060;-71
2022/04/29 02:29:21;;;;;;;10.05;3.80;;;19.10;77.40;;;;;;5004501;28;20088;-70
2022/04/29 02:31:49;;;;;;;7.68;3.10;;;19.10;77.50;;;;;;5005233;28;20093;-73
2022/04/29 02:34:16;;;;;;;13.40;2.75;;;19.10;77.90;;;;;;5007675;28;20087;-72
2022/04/29 02:36:42;;;;;;;6.03;2.50;;;19.10;78.00;;;;;;5007871;28;20069;-70
2022/04/29 02:39:09;;;;;;;6.13;2.40;;;19.10;78.10;;;;;;5007460;28;20036;-73
2022/04/29 02:41:36;;;;;;;6.78;3.00;;;19.10;78.20;;;;;;5006023;28;20029;-67
2022/04/29 02:44:04;;;;;;;12.48;3.85;;;19.10;78.20;;;;;;5007461;28;20084;-71
2022/04/29 02:46:30;;;;;;;8.48;2.47;;;19.10;78.30;;;;;;5007797;28;20101;-73
2022/04/29 02:48:57;;;;;;;8.60;2.65;;;19.10;78.30;;;;;;5007672;28;20664;-69
2022/04/29 02:51:23;;;;;;;9.52;2.15;;;19.10;78.20;;;;;;5004806;28;20638;-69
2022/04/29 02:53:51;;;;;;;8.73;2.25;;;19.10;78.20;;;;;;5007980;28;20080;-69
2022/04/29 02:56:18;;;;;;;8.77;2.95;;;19.10;78.30;;;;;;5006970;28;20038;-69
2022/04/29 02:58:45;;;;;;;8.98;2.83;;;19.10;78.30;;;;;;5008678;28;20018;-74
2022/04/29 03:01:12;;;;;;;19.90;3.30;;;19.10;78.30;;;;;;5004709;28;20064;-73
2022/04/29 03:03:38;;;;;;;10.57;2.83;;;19.10;78.50;;;;;;5009062;28;20109;-72
2022/04/29 03:06:04;;;;;;;7.30;2.78;;;19.10;78.70;;;;;;5007586;28;20033;-73
2022/04/29 03:08:32;;;;;;;7.45;3.28;;;19.10;78.60;;;;;;5009273;28;20088;-72
2022/04/29 03:11:00;;;;;;;17.08;3.33;;;19.10;78.60;;;;;;5004895;28;20029;-67
2022/04/29 03:13:27;;;;;;;16.75;3.80;;;19.10;78.50;;;;;;5007690;28;20018;-69
2022/04/29 03:15:54;;;;;;;4.68;2.92;;;19.10;78.70;;;;;;5007472;28;20477;-72
2022/04/29 03:18:23;;;;;;;10.05;3.15;;;19.10;78.20;;;;;;5007658;28;20030;-70
2022/04/29 03:20:56;;;;;;;11.75;3.65;;;19.10;77.90;;;;;;5006501;28;20038;-74
2022/04/29 03:23:23;;;;;;;14.27;4.03;;;19.10;77.70;;;;;;5007028;28;20029;-71
2022/04/29 03:25:50;;;;;;;13.18;3.08;;;19.10;77.70;;;;;;4991014;28;20033;-68
2022/04/29 03:28:16;;;;;;;13.73;2.70;;;19.10;77.70;;;;;;5007448;28;20097;-72
2022/04/29 03:30:43;;;;;;;7.63;3.75;;;19.10;77.60;;;;;;5004645;28;20014;-73
2022/04/29 03:33:11;;;;;;;9.23;2.63;;;19.00;77.60;;;;;;5007431;28;20549;-70
2022/04/29 03:35:50;;;;;;;9.35;3.13;;;19.00;77.60;;;;;;5006646;28;20131;-70
2022/04/29 03:38:16;;;;;;;10.73;3.33;;;19.00;77.50;;;;;;5008878;28;20026;-69
2022/04/29 03:40:43;;;;;;;12.48;3.72;;;19.00;77.30;;;;;;5004712;28;20033;-67
2022/04/29 03:43:12;;;;;;;8.25;2.85;;;19.00;77.00;;;;;;5007853;28;20081;-66
2022/04/29 03:45:39;;;;;;;12.30;3.22;;;19.00;76.90;;;;;;5007559;28;20033;-68
2022/04/29 03:48:06;;;;;;;9.88;3.78;;;19.00;76.70;;;;;;4989181;28;20012;-66
2022/04/29 03:50:32;;;;;;;14.00;4.05;;;19.00;76.60;;;;;;5007667;28;20028;-67
2022/04/29 03:53:01;;;;;;;8.18;3.00;;;19.00;76.30;;;;;;5007497;28;20018;-68
2022/04/29 03:55:32;;;;;;;12.07;3.67;;;18.90;76.10;;;;;;5007862;28;20033;-70
2022/04/29 03:58:01;;;;;;;9.75;4.07;;;18.90;76.40;;;;;;5006346;28;20032;-68
2022/04/29 04:00:34;;;;;;;16.52;4.15;;;18.90;75.60;;;;;;5006704;28;20034;-68
2022/04/29 04:03:07;;;;;;;15.32;4.50;;;19.00;75.40;;;;;;5006374;28;20026;-72
2022/04/29 04:05:34;;;;;;;19.25;4.75;;;18.90;75.30;;;;;;5005989;28;20061;-68
2022/04/29 04:08:00;;;;;;;19.45;6.03;;;18.90;75.70;;;;;;5007052;28;20026;-71
2022/04/29 04:10:27;;;;;;;13.55;4.78;;;18.90;75.70;;;;;;5003042;28;20037;-69
2022/04/29 04:12:54;;;;;;;24.17;6.95;;;18.90;75.60;;;;;;5008305;28;20521;-68
2022/04/29 04:15:23;;;;;;;23.25;7.38;;;18.90;75.50;;;;;;5006956;28;20470;-72
2022/04/29 04:17:50;;;;;;;11.55;6.28;;;18.80;75.30;;;;;;5008104;28;20397;-74
2022/04/29 04:20:17;;;;;;;25.35;6.35;;;18.90;75.30;;;;;;5006998;28;21000;-66
2022/04/29 04:22:44;;;;;;;9.98;4.32;;;18.80;75.10;;;;;;5007445;28;20013;-72
2022/04/29 04:25:13;;;;;;;10.30;4.72;;;18.80;75.00;;;;;;5007536;28;20026;-71
2022/04/29 04:27:40;;;;;;;14.43;5.32;;;18.80;75.50;;;;;;5006465;28;20025;-66
2022/04/29 04:30:08;;;;;;;20.50;10.85;;;18.80;75.00;;;;;;5008007;28;20049;-69
2022/04/29 04:32:36;;;;;;;18.25;9.50;;;18.80;75.10;;;;;;5005477;28;20115;-74
2022/04/29 04:35:04;;;;;;;14.23;7.10;;;18.70;75.20;;;;;;5007522;28;20389;-68
2022/04/29 04:37:32;;;;;;;13.27;6.22;;;18.80;75.30;;;;;;5007192;28;20030;-73
2022/04/29 04:39:58;;;;;;;13.90;6.22;;;18.70;75.20;;;;;;5007367;28;20061;-73
2022/04/29 04:42:25;;;;;;;16.73;6.40;;;18.70;75.10;;;;;;5006627;28;20037;-73
2022/04/29 04:44:53;;;;;;;14.23;7.65;;;18.70;75.20;;;;;;5021480;28;20172;-76
2022/04/29 04:47:20;;;;;;;14.68;5.53;;;18.70;75.40;;;;;;5007651;28;20022;-72
2022/04/29 04:49:47;;;;;;;21.20;7.28;;;18.70;75.50;;;;;;5006190;28;20026;-69
2022/04/29 04:52:14;;;;;;;11.50;6.00;;;18.70;75.50;;;;;;5007751;28;20010;-73
2022/04/29 04:54:40;;;;;;;14.90;6.22;;;18.70;75.50;;;;;;5006575;28;20014;-74
2022/04/29 04:57:07;;;;;;;14.05;6.00;;;18.70;75.50;;;;;;5007490;28;20014;-74
2022/04/29 04:59:34;;;;;;;23.80;7.45;;;18.70;75.60;;;;;;4988611;28;20117;-72
2022/04/29 05:02:00;;;;;;;20.02;6.53;;;18.70;75.60;;;;;;5007023;28;20014;-69
2022/04/29 05:04:27;;;;;;;14.43;7.13;;;18.70;76.20;;;;;;5007825;28;20044;-67
2022/04/29 05:06:53;;;;;;;19.60;7.22;;;18.70;76.60;;;;;;5005880;28;20082;-68
2022/04/29 05:09:20;;;;;;;18.13;6.63;;;18.70;76.80;;;;;;5007456;28;20410;-74
2022/04/29 05:11:46;;;;;;;15.93;6.55;;;18.70;76.70;;;;;;5006277;28;20022;-74
2022/04/29 05:14:13;;;;;;;15.70;6.35;;;18.70;76.60;;;;;;5007458;28;20108;-72
2022/04/29 05:16:39;;;;;;;13.13;5.93;;;18.70;76.80;;;;;;4986517;28;20033;-73
2022/04/29 05:19:06;;;;;;;20.02;6.78;;;18.70;76.80;;;;;;5007251;28;20075;-74
2022/04/29 05:21:32;;;;;;;11.48;6.05;;;18.70;76.80;;;;;;5007374;28;20068;-72
2022/04/29 05:23:59;;;;;;;15.52;6.13;;;18.70;76.90;;;;;;5006267;28;20014;-70
2022/04/29 05:26:25;;;;;;;15.00;5.80;;;18.70;76.90;;;;;;5006534;28;20039;-68
2022/04/29 05:28:52;;;;;;;12.93;5.43;;;18.70;77.00;;;;;;5006330;28;20037;-71
2022/04/29 05:31:18;;;;;;;9.23;4.82;;;18.70;77.10;;;;;;5007236;28;20033;-74
2022/04/29 05:33:45;;;;;;;12.52;5.03;;;18.70;77.10;;;;;;5006326;28;20536;-70
2022/04/29 05:36:12;;;;;;;16.58;4.78;;;18.70;77.00;;;;;;5007014;28;20042;-74
2022/04/29 05:44:10;;;;;;;15.18;5.85;;;18.70;77.30;;;;;;5011550;28;20141;-74
2022/04/29 05:46:37;;;;;;;13.93;5.78;;;18.70;77.80;;;;;;5009591;28;20021;-74
2022/04/29 05:49:04;;;;;;;18.73;5.05;;;18.60;77.00;;;;;;5010277;28;20056;-70
2022/04/29 05:51:31;;;;;;;11.30;5.88;;;18.60;76.90;;;;;;5010648;28;20592;-74
2022/04/29 05:54:00;;;;;;;19.48;6.20;;;18.60;76.90;;;;;;5010137;28;20500;-72
2022/04/29 05:56:28;;;;;;;17.95;5.00;;;18.60;77.00;;;;;;5011023;28;20585;-74
2022/04/29 05:58:55;;;;;;;44.90;5.22;;;18.60;77.20;;;;;;5009233;28;20026;-67
2022/04/29 06:01:21;;;;;;;17.35;5.40;;;18.60;77.10;;;;;;5010602;28;20014;-72
2022/04/29 06:03:48;;;;;;;17.05;4.40;;;18.60;77.10;;;;;;4992360;28;20359;-70
2022/04/29 06:06:15;;;;;;;11.57;4.32;;;18.60;77.00;;;;;;5010842;28;20084;-70
2022/04/29 06:08:41;;;;;;;12.73;4.32;;;18.60;77.10;;;;;;5010255;28;20084;-67
2022/04/29 06:11:08;;;;;;;13.75;4.78;;;18.60;77.20;;;;;;5010269;28;20640;-70
2022/04/29 06:13:37;;;;;;;11.25;4.95;;;18.60;77.10;;;;;;5011395;28;20026;-71
2022/04/29 06:16:10;;;;;;;11.88;3.85;;;18.60;77.20;;;;;;5009385;28;20339;-72
2022/04/29 06:18:37;;;;;;;13.40;4.55;;;18.60;77.20;;;;;;5010729;28;20476;-73
2022/04/29 06:21:04;;;;;;;12.30;3.95;;;18.60;77.20;;;;;;5008574;28;20049;-67
2022/04/29 06:23:31;;;;;;;16.13;4.03;;;18.60;77.20;;;;;;5010659;28;20041;-73
2022/04/29 06:25:57;;;;;;;19.92;6.32;;;18.60;77.20;;;;;;5009886;28;20102;-68
2022/04/29 06:28:24;;;;;;;25.05;4.55;;;18.70;77.30;;;;;;5009941;28;20018;-70
2022/04/29 06:30:50;;;;;;;13.60;4.25;;;18.60;77.80;;;;;;5010503;28;20029;-72
2022/04/29 06:33:17;;;;;;;9.48;4.03;;;18.70;78.40;;;;;;5008962;28;20382;-71
2022/04/29 06:35:43;;;;;;;15.57;3.85;;;18.70;78.50;;;;;;5010092;28;20034;-71
2022/04/29 06:38:10;;;;;;;9.32;4.22;;;18.80;78.60;;;;;;5024482;28;20601;-72
2022/04/29 06:40:37;;;;;;;25.05;5.35;;;18.80;78.50;;;;;;5010115;28;20037;-68
2022/04/29 06:43:04;;;;;;;11.20;4.00;;;18.80;78.40;;;;;;5009222;28;20018;-71
2022/04/29 06:45:30;;;;;;;8.35;4.20;;;18.80;78.20;;;;;;5010286;28;20022;-67
2022/04/29 06:47:57;;;;;;;13.88;5.47;;;18.80;78.20;;;;;;5010063;28;20735;-73
2022/04/29 06:50:23;;;;;;;12.57;4.60;;;18.80;78.00;;;;;;5008123;28;20033;-70
2022/04/29 06:52:50;;;;;;;17.70;3.75;;;18.80;77.90;;;;;;5010094;28;20034;-64
2022/04/29 06:55:16;;;;;;;14.15;4.70;;;18.80;77.80;;;;;;5008544;28;20057;-69
2022/04/29 06:57:43;;;;;;;9.40;3.67;;;18.80;77.60;;;;;;5009786;28;20488;-67
2022/04/29 07:00:10;;;;;;;16.90;4.78;;;18.80;77.60;;;;;;5008998;28;20030;-70
2022/04/29 07:02:37;;;;;;;17.63;4.30;;;18.90;77.70;;;;;;5009592;28;20451;-69
2022/04/29 07:05:03;;;;;;;11.57;3.80;;;18.90;77.70;;;;;;5008120;28;20385;-65
2022/04/29 07:07:30;;;;;;;21.92;4.82;;;18.90;77.60;;;;;;5009182;28;20904;-73
2022/04/29 07:09:56;;;;;;;20.00;6.18;;;18.90;77.50;;;;;;5009887;28;20014;-72
2022/04/29 07:12:23;;;;;;;20.05;6.22;;;18.90;77.60;;;;;;5008120;28;20026;-70
2022/04/29 07:14:52;;;;;;;10.55;4.38;;;18.90;77.70;;;;;;5009985;28;20033;-67
2022/04/29 07:17:20;;;;;;;12.90;4.55;;;19.00;77.70;;;;;;4989946;28;20026;-70
2022/04/29 07:19:47;;;;;;;20.75;4.95;;;19.00;77.70;;;;;;5009417;28;20573;-72
2022/04/29 07:22:13;;;;;;;17.13;5.53;;;19.10;77.90;;;;;;5008922;28;20081;-71
2022/04/29 07:24:40;;;;;;;16.60;4.45;;;19.10;77.90;;;;;;5008892;28;20017;-67
2022/04/29 07:27:07;;;;;;;20.02;4.18;;;19.10;77.90;;;;;;5009763;28;20390;-71
2022/04/29 07:29:33;;;;;;;11.88;3.80;;;19.10;77.80;;;;;;5005951;28;20018;-74
2022/04/29 07:32:00;;;;;;;20.45;4.15;;;19.20;77.90;;;;;;5006778;28;20144;-73
2022/04/29 07:42:42;;;;;;;17.83;4.50;;;19.30;77.60;;;;;;5006330;28;20117;-73
2022/04/29 07:45:09;;;;;;;23.33;4.30;;;19.30;77.50;;;;;;5009470;28;20482;-70
2022/04/29 07:47:36;;;;;;;14.85;4.88;;;19.30;77.50;;;;;;5007604;28;20777;-71
2022/04/29 07:50:08;;;;;;;19.05;4.22;;;19.30;77.70;;;;;;5008746;28;20155;-72
2022/04/29 07:52:35;;;;;;;25.30;6.22;;;19.30;77.70;;;;;;5006863;28;20421;-72
2022/04/29 07:55:02;;;;;;;16.65;5.15;;;19.30;77.90;;;;;;5007854;28;20393;-72
2022/04/29 07:57:28;;;;;;;18.58;4.32;;;19.30;78.50;;;;;;5008645;28;20030;-73
2022/04/29 07:59:55;;;;;;;15.38;3.63;;;19.30;79.00;;;;;;5007904;28;20103;-72
2022/04/29 08:02:21;;;;;;;6.18;1.90;;;19.30;79.30;;;;;;4989743;28;20499;-73
2022/04/29 08:04:48;;;;;;;14.93;2.72;;;19.30;79.00;;;;;;5007830;28;20440;-73
2022/04/29 08:07:14;;;;;;;8.68;2.28;;;19.20;78.70;;;;;;5008743;28;20010;-70
2022/04/29 08:09:41;;;;;;;9.50;1.88;;;19.20;78.70;;;;;;5006651;28;20422;-72
2022/04/29 08:12:10;;;;;;;18.27;2.72;;;19.20;78.80;;;;;;5007854;28;20013;-71
2022/04/29 08:14:36;;;;;;;14.98;1.98;;;19.20;78.90;;;;;;5007169;28;20504;-69
2022/04/29 08:17:03;;;;;;;9.00;2.55;;;19.10;79.10;;;;;;5007280;28;20025;-71
2022/04/29 08:19:30;;;;;;;7.63;2.53;;;19.10;79.50;;;;;;5008237;28;20014;-75
2022/04/29 08:21:56;;;;;;;14.38;2.40;;;19.10;79.70;;;;;;5007041;28;20052;-74
2022/04/29 08:24:23;;;;;;;17.08;2.00;;;19.10;79.90;;;;;;5008510;28;20021;-74
2022/04/29 08:26:49;;;;;;;5.50;1.55;;;19.10;80.00;;;;;;5006996;28;20048;-68
2022/04/29 08:29:16;;;;;;;10.18;2.50;;;19.10;80.00;;;;;;5008223;28;20030;-73
2022/04/29 08:31:42;;;;;;;9.85;3.03;;;19.10;80.00;;;;;;5008165;28;20117;-74
2022/04/29 08:34:09;;;;;;;7.80;2.50;;;19.10;80.10;;;;;;5007183;28;20019;-74
2022/04/29 08:36:35;;;;;;;16.58;3.17;;;19.00;80.10;;;;;;5006308;28;20034;-74
2022/04/29 08:39:03;;;;;;;5.25;2.28;;;19.00;80.20;;;;;;5006592;28;20037;-73
2022/04/29 08:41:30;;;;;;;5.97;2.40;;;19.00;80.50;;;;;;5008355;28;20100;-67
2022/04/29 08:43:57;;;;;;;13.95;2.90;;;19.00;80.70;;;;;;5007044;28;20026;-73
2022/04/29 08:46:23;;;;;;;6.95;2.97;;;19.10;81.00;;;;;;5007716;28;20030;-73
2022/04/29 08:48:51;;;;;;;13.98;2.40;;;19.10;81.20;;;;;;5007188;28;20042;-72
2022/04/29 08:51:19;;;;;;;7.95;2.33;;;19.10;81.30;;;;;;5007664;28;20026;-73
2022/04/29 08:53:48;;;;;;;17.95;2.70;;;19.10;81.50;;;;;;5007969;28;20011;-71
2022/04/29 08:59:03;;;;;;;7.93;1.30;;;19.10;81.80;;;;;;5006261;28;20068;-71
2022/04/29 09:01:30;;;;;;;4.93;1.67;;;19.10;81.90;;;;;;5006353;28;20084;-71
2022/04/29 09:03:56;;;;;;;8.15;1.20;;;19.10;82.00;;;;;;5007789;28;20671;-71
2022/04/29 09:06:23;;;;;;;1.58;0.82;;;19.10;82.80;;;;;;5007028;28;20010;-69
2022/04/29 09:08:50;;;;;;;4.88;1.20;;;19.10;82.20;;;;;;5007048;28;20022;-70
2022/04/29 09:11:27;;;;;;;2.58;0.80;;;19.20;82.40;;;;;;5006401;28;20022;-67
2022/04/29 09:13:54;;;;;;;2.17;1.45;;;19.20;82.60;;;;;;5006378;28;20033;-72
2022/04/29 09:16:21;;;;;;;7.47;0.88;;;19.20;82.70;;;;;;5007415;28;20056;-72
2022/04/29 09:18:53;;;;;;;4.25;0.90;;;19.20;82.80;;;;;;5006563;28;20045;-73
2022/04/29 09:21:28;;;;;;;2.75;1.00;;;19.30;83.00;;;;;;5016245;28;20053;-72
2022/04/29 09:24:10;;;;;;;1.90;0.60;;;19.30;83.00;;;;;;5007608;28;20611;-71
2022/04/29 09:26:40;;;;;;;0.85;0.60;;;19.20;83.00;;;;;;5005485;28;20068;-73
2022/04/29 09:29:15;;;;;;;1.45;0.47;;;19.30;83.00;;;;;;5007707;28;20032;-72
2022/04/29 09:31:53;;;;;;;1.83;0.57;;;19.20;82.90;;;;;;5005982;28;20417;-73
2022/04/29 09:34:20;;;;;;;1.00;0.30;;;19.20;83.00;;;;;;5006744;28;20042;-72
2022/04/29 09:36:47;;;;;;;2.72;0.60;;;19.20;82.90;;;;;;5007182;28;20037;-70
2022/04/29 09:39:32;;;;;;;1.85;0.73;;;19.20;83.00;;;;;;5005183;28;20373;-73
2022/04/29 09:42:00;;;;;;;3.78;1.40;;;19.20;83.10;;;;;;5006240;28;20080;-74
2022/04/29 09:44:29;;;;;;;3.97;0.50;;;19.20;83.20;;;;;;5005879;28;20021;-73
2022/04/29 09:46:56;;;;;;;1.45;0.50;;;19.20;83.30;;;;;;5007442;28;20097;-73
2022/04/29 09:49:28;;;;;;;1.77;0.45;;;19.20;83.40;;;;;;5006344;28;20096;-73
2022/04/29 09:51:54;;;;;;;4.32;0.40;;;19.20;83.50;;;;;;5005609;28;20406;-72
2022/04/29 09:54:30;;;;;;;0.20;0.20;;;19.20;83.50;;;;;;5007701;28;20058;-72
2022/04/29 09:57:18;;;;;;;1.15;0.45;;;19.20;83.60;;;;;;5004953;28;20045;-69
2022/04/29 09:59:48;;;;;;;0.38;0.28;;;19.20;83.60;;;;;;5007205;28;20409;-75
2022/04/29 10:02:17;;;;;;;3.47;0.40;;;19.20;83.70;;;;;;5006502;28;20018;-70
2022/04/29 10:04:46;;;;;;;5.05;0.43;;;19.20;83.70;;;;;;5006746;28;20042;-73
2022/04/29 10:07:17;;;;;;;3.28;0.57;;;19.20;84.40;;;;;;5006992;28;20029;-70
2022/04/29 10:09:48;;;;;;;4.97;1.00;;;19.20;83.80;;;;;;5006081;28;20018;-69
2022/04/29 10:12:20;;;;;;;2.08;0.57;;;19.20;83.90;;;;;;5007023;28;20026;-69
2022/04/29 10:14:48;;;;;;;2.53;0.60;;;19.20;83.90;;;;;;5006247;28;20013;-70
2022/04/29 10:23:06;;;;;;;2.92;0.70;;;19.30;83.90;;;;;;5004160;28;20040;-72
2022/04/29 10:25:34;;;;;;;3.00;0.82;;;19.30;84.10;;;;;;5009293;28;20513;-68
2022/04/29 10:28:02;;;;;;;3.50;0.75;;;19.40;84.50;;;;;;5008769;28;20025;-72
2022/04/29 10:30:40;;;;;;;2.92;0.65;;;19.40;84.80;;;;;;5010279;28;20127;-70
2022/04/29 10:33:17;;;;;;;1.05;0.60;;;19.40;84.80;;;;;;5010241;28;20018;-72
2022/04/29 10:35:46;;;;;;;4.95;1.08;;;19.40;85.10;;;;;;5007962;28;20024;-73
2022/04/29 10:38:18;;;;;;;2.20;0.68;;;19.50;85.40;;;;;;5009046;28;20108;-69
2022/04/29 10:40:48;;;;;;;4.65;0.85;;;19.50;85.50;;;;;;5008517;28;20017;-70
2022/04/29 10:43:18;;;;;;;8.40;2.05;;;19.50;85.60;;;;;;5009768;28;20543;-67
2022/04/29 10:46:20;;;;;;;6.50;1.20;;;19.60;85.70;;;;;;5009943;28;20109;-72
2022/04/29 10:48:56;;;;;;;3.83;0.85;;;19.70;85.70;;;;;;4976982;28;20030;-72
2022/04/29 10:51:25;;;;;;;1.45;0.70;;;19.70;85.70;;;;;;5009740;28;20469;-67
2022/04/29 10:53:55;;;;;;;5.50;1.33;;;19.80;85.60;;;;;;5008833;28;20053;-68
2022/04/29 10:56:31;;;;;;;1.80;0.93;;;19.90;85.20;;;;;;5009877;28;20041;-69
2022/04/29 10:59:09;;;;;;;1.20;0.88;;;19.90;84.90;;;;;;5009436;28;20025;-73
2022/04/29 11:01:37;;;;;;;1.35;0.70;;;20.00;84.60;;;;;;5008057;28;20068;-68
2022/04/29 11:04:27;;;;;;;1.90;0.47;;;20.00;84.30;;;;;;5010203;28;20022;-70
2022/04/29 11:06:54;;;;;;;4.72;0.88;;;20.10;84.00;;;;;;5008717;28;20029;-69
2022/04/29 11:09:52;;;;;;;7.97;1.85;;;20.10;83.50;;;;;;5009537;28;21019;-67
2022/04/29 11:12:36;;;;;;;16.30;1.58;;;20.20;83.40;;;;;;5007078;28;20034;-70
2022/04/29 11:15:15;;;;;;;7.70;0.98;;;20.20;83.80;;;;;;5008661;28;20113;-66
2022/04/29 11:17:43;;;;;;;4.43;0.98;;;20.30;83.90;;;;;;5009325;28;20852;-75
2022/04/29 11:20:16;;;;;;;13.10;1.58;;;20.30;83.60;;;;;;5008328;28;20049;-73
2022/04/29 11:25:57;;;;;;;3.20;0.70;;;20.40;82.40;;;;;;5008744;28;20044;-68
2022/04/29 11:28:25;;;;;;;7.13;1.00;;;20.50;82.00;;;;;;5008048;28;20087;-67
2022/04/29 11:31:06;;;;;;;4.40;1.00;;;20.60;81.90;;;;;;5009731;28;20014;-68
2022/04/29 11:33:33;;;;;;;2.67;0.88;;;20.60;81.40;;;;;;5009154;28;20096;-70
2022/04/29 11:36:13;;;;;;;3.95;1.48;;;20.70;80.40;;;;;;5008046;28;20586;-66
2022/04/29 11:38:48;;;;;;;3.92;1.08;;;20.80;79.60;;;;;;5009191;28;20072;-73
2022/04/29 11:41:24;;;;;;;3.55;0.63;;;20.90;79.10;;;;;;5007718;28;20109;-68
2022/04/29 11:43:51;;;;;;;5.97;1.17;;;21.00;78.90;;;;;;5008706;28;20036;-70
2022/04/29 11:46:19;;;;;;;1.77;0.88;;;21.10;78.80;;;;;;5007498;28;20429;-69
2022/04/29 11:48:57;;;;;;;4.65;1.33;;;21.20;77.70;;;;;;5007910;28;20477;-68
2022/04/29 11:51:28;;;;;;;1.20;0.75;;;21.20;75.90;;;;;;5008426;28;20084;-65
2022/04/29 11:53:57;;;;;;;3.75;0.68;;;21.20;74.80;;;;;;5007804;28;20022;-71
2022/04/29 11:56:32;;;;;;;1.52;0.65;;;21.20;74.30;;;;;;5008643;28;20031;-67
2022/04/29 11:58:59;;;;;;;5.25;0.70;;;21.20;73.60;;;;;;5008022;28;20021;-68
2022/04/29 12:01:30;;;;;;;1.75;0.80;;;21.30;73.10;;;;;;5008019;28;20037;-70
2022/04/29 12:03:57;;;;;;;4.35;0.75;;;21.30;72.60;;;;;;4990601;28;20380;-66
2022/04/29 12:06:24;;;;;;;6.13;0.60;;;21.40;72.20;;;;;;5007970;28;20449;-70
2022/04/29 12:08:50;;;;;;;4.72;0.93;;;21.40;72.30;;;;;;5008700;28;20041;-67
2022/04/29 12:11:29;;;;;;;7.43;0.85;;;21.40;70.80;;;;;;5006964;28;20030;-70
2022/04/29 12:13:56;;;;;;;5.25;1.08;;;21.40;70.00;;;;;;5008750;28;20033;-71
2022/04/29 12:16:23;;;;;;;4.07;1.50;;;21.50;69.80;;;;;;5007415;28;20026;-67
2022/04/29 12:18:50;;;;;;;5.95;1.45;;;21.40;69.30;;;;;;5008457;28;20481;-67
2022/04/29 12:21:25;;;;;;;4.07;0.70;;;21.40;68.90;;;;;;5007796;28;20046;-67
2022/04/29 12:23:52;;;;;;;5.32;0.88;;;21.40;68.70;;;;;;5007360;28;20021;-71
2022/04/29 12:26:19;;;;;;;4.53;1.50;;;21.40;68.30;;;;;;5008327;28;20026;-69
2022/04/29 12:28:56;;;;;;;3.55;0.85;;;21.30;68.10;;;;;;5007275;28;21332;-71
2022/04/29 12:36:58;;;;;;;5.07;0.60;;;21.30;68.40;;;;;;5006166;28;20044;-69
2022/04/29 12:39:27;;;;;;;9.30;1.42;;;21.30;68.10;;;;;;5008216;28;20026;-73
2022/04/29 12:42:18;;;;;;;2.20;0.93;;;21.30;68.10;;;;;;5006863;28;20010;-73
2022/04/29 12:45:04;;;;;;;3.88;1.23;;;21.30;68.20;;;;;;4997851;28;20030;-73
2022/04/29 12:47:39;;;;;;;2.63;0.77;;;21.20;68.10;;;;;;5006862;28;20017;-72
2022/04/29 12:50:19;;;;;;;2.35;0.80;;;21.20;68.10;;;;;;5006018;28;20113;-73
2022/04/29 12:53:13;;;;;;;3.40;1.25;;;21.20;68.10;;;;;;5007364;28;20057;-73
2022/04/29 12:55:42;;;;;;;4.95;0.70;;;21.30;68.10;;;;;;5003843;28;20050;-66
2022/04/29 12:58:14;;;;;;;2.80;0.77;;;21.30;68.70;;;;;;5006940;28;20013;-72
2022/04/29 13:00:44;;;;;;;4.88;0.85;;;21.30;68.10;;;;;;4990525;28;20088;-73
2022/04/29 13:03:21;;;;;;;6.00;0.90;;;21.30;68.80;;;;;;5004739;28;20484;-72
2022/04/29 13:05:49;;;;;;;3.33;1.58;;;21.40;68.30;;;;;;5007661;28;20025;-71
2022/04/29 13:08:15;;;;;;;6.30;1.33;;;21.40;68.60;;;;;;5006711;28;20014;-71
2022/04/29 13:10:49;;;;;;;10.30;1.58;;;21.40;69.00;;;;;;5007325;28;20028;-73
2022/04/29 13:13:16;;;;;;;7.75;1.40;;;21.50;69.20;;;;;;5006847;28;20032;-67
2022/04/29 13:15:43;;;;;;;4.50;0.93;;;21.50;69.10;;;;;;5007224;28;20041;-72
2022/04/29 13:18:11;;;;;;;5.10;1.85;;;21.50;69.20;;;;;;5006268;28;20025;-71
2022/04/29 13:20:42;;;;;;;8.85;1.42;;;21.50;69.50;;;;;;5006239;28;20042;-73